Time;durP1;ratioP1;P1;durP2;ratioP2;P2;SDS_P1;SDS_P2;PMS_P1;PMS_P2;Temp;Humidity;BMP_temperature;BMP_pressure;BME280_temperature;BME280_humidity;BME280_pressure;Samples;Min_cycle;Max_cycle;Signal;HPM_P1;HPM_P2
2022/05/09 00:01:20;;;;;;;;;;;;;;;;;;4993055;28;19922;-59
2022/05/09 00:03:45;;;;;;;;;;;;;;;;;;4990572;28;19925;-60
2022/05/09 00:06:11;;;;;;;;;;;;;;;;;;4998568;28;20294;-61
2022/05/09 00:08:37;;;;;;;;;;;;;;;;;;4991952;28;20039;-60
2022/05/09 00:11:04;;;;;;;;;;;;;;;;;;4993394;28;20354;-58
2022/05/09 00:13:30;;;;;;;;;;;;;;;;;;4992186;28;19914;-60
2022/05/09 00:15:55;;;;;;;;;;;;;;;;;;5001641;28;19917;-62
2022/05/09 00:18:21;;;;;;;;;;;;;;;;;;4990818;28;19921;-59
2022/05/09 00:20:46;;;;;;;;;;;;;;;;;;4999132;28;19932;-59
2022/05/09 00:23:12;;;;;;;;;;;;;;;;;;4995244;28;19925;-59
2022/05/09 00:25:37;;;;;;;;;;;;;;;;;;4991326;28;19924;-59
2022/05/09 00:28:02;;;;;;;;;;;;;;;;;;4991846;28;19960;-59
2022/05/09 00:30:27;;;;;;;;;;;;;;;;;;5010942;28;19968;-61
2022/05/09 00:32:52;;;;;;;;;;;;;;;;;;4990699;28;20383;-61
2022/05/09 00:35:19;;;;;;;;;;;;;;;;;;4995514;28;19921;-59
2022/05/09 00:37:44;;;;;;;;;;;;;;;;;;4995054;28;19924;-60
2022/05/09 00:40:10;;;;;;;;;;;;;;;;;;4999776;28;19921;-61
2022/05/09 00:42:35;;;;;;;;;;;;;;;;;;5000182;28;19933;-60
2022/05/09 00:45:00;;;;;;;;;;;;;;;;;;4995237;28;19988;-59
2022/05/09 00:47:26;;;;;;;;;;;;;;;;;;4996542;28;19964;-59
2022/05/09 00:49:53;;;;;;;;;;;;;;;;;;4996487;28;19953;-60
2022/05/09 00:52:19;;;;;;;;;;;;;;;;;;5007341;28;19925;-60
2022/05/09 00:54:44;;;;;;;;;;;;;;;;;;4996382;28;19917;-60
2022/05/09 00:57:09;;;;;;;;;;;;;;;;;;4996726;28;20528;-60
2022/05/09 00:59:34;;;;;;;;;;;;;;;;;;4999680;28;19921;-60
2022/05/09 01:01:59;;;;;;;;;;;;;;;;;;4995801;28;20300;-59
2022/05/09 01:04:26;;;;;;;;;;;;;;;;;;4996874;28;20337;-60
2022/05/09 01:06:51;;;;;;;;;;;;;;;;;;5016725;28;20004;-60
2022/05/09 01:09:16;;;;;;;;;;;;;;;;;;4995817;28;20508;-61
2022/05/09 01:11:42;;;;;;;;;;;;;;;;;;4999038;28;20020;-59
2022/05/09 01:14:08;;;;;;;;;;;;;;;;;;4998977;28;19918;-60
2022/05/09 01:16:33;;;;;;;;;;;;;;;;;;4996428;28;19924;-61
2022/05/09 01:18:58;;;;;;;;;;;;;;;;;;4996750;28;19929;-60
2022/05/09 01:21:24;;;;;;;;;;;;;;;;;;4995436;28;19926;-60
2022/05/09 01:23:49;;;;;;;;;;;;;;;;;;4997002;28;19918;-59
2022/05/09 01:26:15;;;;;;;;;;;;;;;;;;5003385;28;19918;-61
2022/05/09 01:28:41;;;;;;;;;;;;;;;;;;4997486;28;19924;-61
2022/05/09 01:31:07;;;;;;;;;;;;;;;;;;4998256;28;19925;-58
2022/05/09 01:33:33;;;;;;;;;;;;;;;;;;4996840;28;20544;-58
2022/05/09 01:35:58;;;;;;;;;;;;;;;;;;4993925;28;19917;-58
2022/05/09 01:38:23;;;;;;;;;;;;;;;;;;4996135;28;19922;-61
2022/05/09 01:40:48;;;;;;;;;;;;;;;;;;4996731;28;20036;-59
2022/05/09 01:43:13;;;;;;;;;;;;;;;;;;4997574;28;19925;-60
2022/05/09 01:45:39;;;;;;;;;;;;;;;;;;5010008;28;19925;-61
2022/05/09 01:50:49;;;;;;;;;;;;;;;;;;4989530;28;19928;-61
2022/05/09 01:53:15;;;;;;;;;;;;;;;;;;4997663;28;19917;-58
2022/05/09 01:55:41;;;;;;;;;;;;;;;;;;4998476;28;20337;-59
2022/05/09 01:58:06;;;;;;;;;;;;;;;;;;4993500;28;19917;-59
2022/05/09 02:00:33;;;;;;;;;;;;;;;;;;5014146;28;19921;-59
2022/05/09 02:02:58;;;;;;;;;;;;;;;;;;4994611;28;19921;-60
2022/05/09 02:05:23;;;;;;;;;;;;;;;;;;4996173;28;19975;-59
2022/05/09 02:07:48;;;;;;;;;;;;;;;;;;4996765;28;19921;-60
2022/05/09 02:10:13;;;;;;;;;;;;;;;;;;4994155;28;19918;-59
2022/05/09 02:12:39;;;;;;;;;;;;;;;;;;5009914;28;19918;-59
2022/05/09 02:15:04;;;;;;;;;;;;;;;;;;4995492;28;19917;-59
2022/05/09 02:17:31;;;;;;;;;;;;;;;;;;4994138;28;19917;-60
2022/05/09 02:19:58;;;;;;;;;;;;;;;;;;4996725;28;20072;-60
2022/05/09 02:22:23;;;;;;;;;;;;;;;;;;4995972;28;19982;-59
2022/05/09 02:24:48;;;;;;;;;;;;;;;;;;4996658;28;19926;-60
2022/05/09 02:27:16;;;;;;;;;;;;;;;;;;4995131;28;19917;-59
2022/05/09 02:29:42;;;;;;;;;;;;;;;;;;4994216;28;20378;-60
2022/05/09 02:32:09;;;;;;;;;;;;;;;;;;4992760;28;19964;-59
2022/05/09 02:34:34;;;;;;;;;;;;;;;;;;4997796;28;19967;-59
2022/05/09 02:36:59;;;;;;;;;;;;;;;;;;4994465;28;19922;-59
2022/05/09 02:39:24;;;;;;;;;;;;;;;;;;4991939;28;20171;-59
2022/05/09 02:41:50;;;;;;;;;;;;;;;;;;4995055;28;19921;-59
2022/05/09 02:44:15;;;;;;;;;;;;;;;;;;4998779;28;19979;-60
2022/05/09 02:46:42;;;;;;;;;;;;;;;;;;4994596;28;19956;-59
2022/05/09 02:49:07;;;;;;;;;;;;;;;;;;4994344;28;19918;-60
2022/05/09 02:51:32;;;;;;;;;;;;;;;;;;4994183;28;20294;-59
2022/05/09 02:53:57;;;;;;;;;;;;;;;;;;4996782;28;20397;-59
2022/05/09 02:56:23;;;;;;;;;;;;;;;;;;4993600;28;19917;-59
2022/05/09 02:58:48;;;;;;;;;;;;;;;;;;4995772;28;20354;-58
2022/05/09 03:01:13;;;;;;;;;;;;;;;;;;4992850;28;20013;-59
2022/05/09 03:06:22;;;;;;;;;;;;;;;;;;4993891;28;19917;-59
2022/05/09 03:08:48;;;;;;;;;;;;;;;;;;4994268;28;19925;-59
2022/05/09 03:11:13;;;;;;;;;;;;;;;;;;4992391;28;20293;-59
2022/05/09 03:13:39;;;;;;;;;;;;;;;;;;4998049;28;20426;-59
2022/05/09 03:16:04;;;;;;;;;;;;;;;;;;4992555;28;20290;-59
2022/05/09 03:18:29;;;;;;;;;;;;;;;;;;4999280;28;19928;-59
2022/05/09 03:20:55;;;;;;;;;;;;;;;;;;4991692;28;19921;-59
2022/05/09 03:23:20;;;;;;;;;;;;;;;;;;4994843;28;20341;-60
2022/05/09 03:25:45;;;;;;;;;;;;;;;;;;4993029;28;19941;-59
2022/05/09 03:28:10;;;;;;;;;;;;;;;;;;4995957;28;19940;-58
2022/05/09 03:30:41;;;;;;;;;;;;;;;;;;4995403;28;19917;-59
2022/05/09 03:33:06;;;;;;;;;;;;;;;;;;4994754;28;20271;-60
2022/05/09 03:35:31;;;;;;;;;;;;;;;;;;4994326;28;19936;-59
2022/05/09 03:37:57;;;;;;;;;;;;;;;;;;4994383;28;19918;-58
2022/05/09 03:40:22;;;;;;;;;;;;;;;;;;4994696;28;20528;-60
2022/05/09 03:42:47;;;;;;;;;;;;;;;;;;4998315;28;19921;-59
2022/05/09 03:45:12;;;;;;;;;;;;;;;;;;5009190;28;19921;-59
2022/05/09 03:47:38;;;;;;;;;;;;;;;;;;4994018;28;19918;-58
2022/05/09 03:50:04;;;;;;;;;;;;;;;;;;4995523;28;19917;-60
2022/05/09 03:52:31;;;;;;;;;;;;;;;;;;4994278;28;19999;-59
2022/05/09 03:54:57;;;;;;;;;;;;;;;;;;4992632;28;20087;-60
2022/05/09 03:57:22;;;;;;;;;;;;;;;;;;5000850;28;19918;-59
2022/05/09 03:59:47;;;;;;;;;;;;;;;;;;4993757;28;20374;-58
2022/05/09 04:02:12;;;;;;;;;;;;;;;;;;4994677;28;19921;-58
2022/05/09 04:04:38;;;;;;;;;;;;;;;;;;4992800;28;19925;-59
2022/05/09 04:07:03;;;;;;;;;;;;;;;;;;4994773;28;19917;-59
2022/05/09 04:09:28;;;;;;;;;;;;;;;;;;4995071;28;19923;-59
2022/05/09 04:11:53;;;;;;;;;;;;;;;;;;4992731;28;21157;-60
2022/05/09 04:16:49;;;;;;;;;;;;;;;;;;4992548;28;20446;-58
2022/05/09 04:17:06;;;;;;;;;;;;;;;;;;4992486;28;19917;-59
2022/05/09 04:19:33;;;;;;;;;;;;;;;;;;4993446;28;19922;-59
2022/05/09 04:22:00;;;;;;;;;;;;;;;;;;4994220;28;19948;-59
2022/05/09 04:24:25;;;;;;;;;;;;;;;;;;4995109;28;19917;-59
2022/05/09 04:26:50;;;;;;;;;;;;;;;;;;4994667;28;20541;-58
2022/05/09 04:29:15;;;;;;;;;;;;;;;;;;4992440;28;20327;-58
2022/05/09 04:31:41;;;;;;;;;;;;;;;;;;4982394;28;19917;-59
2022/05/09 04:34:06;;;;;;;;;;;;;;;;;;4993224;28;19921;-60
2022/05/09 04:36:32;;;;;;;;;;;;;;;;;;4995093;28;20322;-60
2022/05/09 04:38:59;;;;;;;;;;;;;;;;;;4991265;28;19945;-59
2022/05/09 04:41:25;;;;;;;;;;;;;;;;;;4994220;28;20004;-59
2022/05/09 04:43:50;;;;;;;;;;;;;;;;;;4994940;28;19913;-58
2022/05/09 04:46:15;;;;;;;;;;;;;;;;;;5008419;28;19925;-59
2022/05/09 04:48:42;;;;;;;;;;;;;;;;;;4994660;28;20724;-60
2022/05/09 04:51:07;;;;;;;;;;;;;;;;;;5002579;28;19917;-59
2022/05/09 04:53:32;;;;;;;;;;;;;;;;;;4994363;28;20271;-59
2022/05/09 04:55:57;;;;;;;;;;;;;;;;;;4992456;28;19925;-60
2022/05/09 04:58:22;;;;;;;;;;;;;;;;;;4997198;28;19924;-58
2022/05/09 05:00:48;;;;;;;;;;;;;;;;;;4992206;28;20374;-59
2022/05/09 05:03:13;;;;;;;;;;;;;;;;;;4995107;28;20394;-58
2022/05/09 05:05:38;;;;;;;;;;;;;;;;;;4991680;28;20611;-60
2022/05/09 05:08:03;;;;;;;;;;;;;;;;;;4991172;28;20286;-58
2022/05/09 05:10:30;;;;;;;;;;;;;;;;;;4995958;28;20000;-60
2022/05/09 05:12:56;;;;;;;;;;;;;;;;;;4991986;28;20047;-59
2022/05/09 05:15:21;;;;;;;;;;;;;;;;;;4992347;28;19922;-59
2022/05/09 05:17:47;;;;;;;;;;;;;;;;;;4992833;28;19972;-59
2022/05/09 05:20:12;;;;;;;;;;;;;;;;;;4992428;28;20465;-60
2022/05/09 05:22:37;;;;;;;;;;;;;;;;;;4991587;28;20272;-58
2022/05/09 05:25:02;;;;;;;;;;;;;;;;;;4995169;28;19917;-60
2022/05/09 05:27:28;;;;;;;;;;;;;;;;;;4992963;28;19918;-58
2022/05/09 05:29:57;;;;;;;;;;;;;;;;;;4996957;28;19925;-59
2022/05/09 05:32:22;;;;;;;;;;;;;;;;;;4997454;28;19917;-59
2022/05/09 05:34:47;;;;;;;;;;;;;;;;;;4999777;28;19917;-59
2022/05/09 05:37:12;;;;;;;;;;;;;;;;;;4999972;28;20337;-59
2022/05/09 05:39:38;;;;;;;;;;;;;;;;;;4995594;28;20357;-59
2022/05/09 05:42:04;;;;;;;;;;;;;;;;;;5006810;28;19921;-59
2022/05/09 05:44:29;;;;;;;;;;;;;;;;;;4997183;28;19972;-58
2022/05/09 05:46:54;;;;;;;;;;;;;;;;;;4998223;28;20459;-59
2022/05/09 05:49:25;;;;;;;;;;;;;;;;;;4994321;28;19920;-59
2022/05/09 05:51:51;;;;;;;;;;;;;;;;;;4982972;28;19917;-61
2022/05/09 05:54:16;;;;;;;;;;;;;;;;;;4998511;28;20019;-59
2022/05/09 05:56:41;;;;;;;;;;;;;;;;;;5003507;28;20330;-60
2022/05/09 05:59:06;;;;;;;;;;;;;;;;;;4994384;28;19944;-59
2022/05/09 06:01:35;;;;;;;;;;;;;;;;;;5012316;28;19940;-59
2022/05/09 06:04:00;;;;;;;;;;;;;;;;;;4998882;28;20369;-59
2022/05/09 06:06:26;;;;;;;;;;;;;;;;;;4995018;28;19918;-60
2022/05/09 06:08:51;;;;;;;;;;;;;;;;;;5011080;28;19925;-59
2022/05/09 06:11:16;;;;;;;;;;;;;;;;;;4994471;28;19994;-59
2022/05/09 06:13:41;;;;;;;;;;;;;;;;;;4991094;28;20048;-60
2022/05/09 06:16:06;;;;;;;;;;;;;;;;;;4997224;28;19940;-60
2022/05/09 06:18:32;;;;;;;;;;;;;;;;;;4997900;28;19953;-61
2022/05/09 06:20:57;;;;;;;;;;;;;;;;;;4994643;28;19922;-60
2022/05/09 06:23:23;;;;;;;;;;;;;;;;;;4994091;28;19975;-62
2022/05/09 06:25:48;;;;;;;;;;;;;;;;;;4989303;28;20008;-60
2022/05/09 06:28:18;;;;;;;;;;;;;;;;;;4994409;28;19917;-61
2022/05/09 06:30:43;;;;;;;;;;;;;;;;;;5010259;28;20402;-60
2022/05/09 06:33:08;;;;;;;;;;;;;;;;;;4998719;28;19921;-61
2022/05/09 06:35:35;;;;;;;;;;;;;;;;;;5004351;28;19918;-61
2022/05/09 06:38:00;;;;;;;;;;;;;;;;;;5006706;28;20257;-60
2022/05/09 06:40:26;;;;;;;;;;;;;;;;;;5009872;28;19925;-60
2022/05/09 06:42:54;;;;;;;;;;;;;;;;;;4995057;28;20470;-60
2022/05/09 06:45:20;;;;;;;;;;;;;;;;;;4974375;28;19928;-62
2022/05/09 06:47:45;;;;;;;;;;;;;;;;;;4990363;28;19918;-62
2022/05/09 06:50:10;;;;;;;;;;;;;;;;;;4995134;28;19998;-59
2022/05/09 06:52:36;;;;;;;;;;;;;;;;;;4990861;28;19918;-62
2022/05/09 06:55:01;;;;;;;;;;;;;;;;;;4992913;28;19917;-60
2022/05/09 06:57:27;;;;;;;;;;;;;;;;;;4995482;28;20105;-59
2022/05/09 06:59:52;;;;;;;;;;;;;;;;;;4992955;28;20334;-60
2022/05/09 07:02:17;;;;;;;;;;;;;;;;;;4994450;28;20695;-59
2022/05/09 07:04:42;;;;;;;;;;;;;;;;;;4995317;28;20421;-60
2022/05/09 07:07:08;;;;;;;;;;;;;;;;;;4993878;28;19918;-60
2022/05/09 07:09:33;;;;;;;;;;;;;;;;;;4993514;28;19921;-61
2022/05/09 07:11:59;;;;;;;;;;;;;;;;;;4996887;28;20689;-60
2022/05/09 07:14:24;;;;;;;;;;;;;;;;;;4995259;28;20318;-60
2022/05/09 07:16:49;;;;;;;;;;;;;;;;;;4994869;28;19917;-59
2022/05/09 07:19:16;;;;;;;;;;;;;;;;;;5007976;28;19918;-59
2022/05/09 07:21:41;;;;;;;;;;;;;;;;;;4991391;28;20001;-59
2022/05/09 07:24:07;;;;;;;;;;;;;;;;;;4993291;28;20032;-59
2022/05/09 07:26:32;;;;;;;;;;;;;;;;;;4995157;28;19967;-60
2022/05/09 07:28:58;;;;;;;;;;;;;;;;;;4990654;28;20393;-60
2022/05/09 07:31:23;;;;;;;;;;;;;;;;;;4993798;28;19925;-60
2022/05/09 07:33:49;;;;;;;;;;;;;;;;;;4996525;28;19921;-60
2022/05/09 07:36:14;;;;;;;;;;;;;;;;;;4997846;28;19973;-60
2022/05/09 07:38:39;;;;;;;;;;;;;;;;;;5009021;28;20013;-60
2022/05/09 07:41:04;;;;;;;;;;;;;;;;;;4998777;28;20047;-61
2022/05/09 07:43:30;;;;;;;;;;;;;;;;;;4999353;28;19925;-59
2022/05/09 07:45:56;;;;;;;;;;;;;;;;;;4994322;28;19928;-59
2022/05/09 07:48:22;;;;;;;;;;;;;;;;;;4999764;28;19917;-59
2022/05/09 07:50:47;;;;;;;;;;;;;;;;;;4995035;28;19924;-60
2022/05/09 07:53:12;;;;;;;;;;;;;;;;;;4992973;28;19917;-60
2022/05/09 07:55:39;;;;;;;;;;;;;;;;;;4991100;28;20334;-60
2022/05/09 07:58:05;;;;;;;;;;;;;;;;;;4993342;28;19917;-61
2022/05/09 08:00:31;;;;;;;;;;;;;;;;;;4992790;28;19980;-61
2022/05/09 08:02:56;;;;;;;;;;;;;;;;;;5006483;28;20433;-61
2022/05/09 08:05:22;;;;;;;;;;;;;;;;;;4995252;28;19955;-60
2022/05/09 08:07:49;;;;;;;;;;;;;;;;;;4991918;28;19924;-60
2022/05/09 08:10:17;;;;;;;;;;;;;;;;;;4994564;28;20354;-59
2022/05/09 08:12:43;;;;;;;;;;;;;;;;;;4992548;28;19918;-61
2022/05/09 08:15:08;;;;;;;;;;;;;;;;;;4993802;28;20253;-60
2022/05/09 08:17:33;;;;;;;;;;;;;;;;;;4998103;28;19953;-60
2022/05/09 08:19:58;;;;;;;;;;;;;;;;;;4994766;28;19926;-60
2022/05/09 08:22:28;;;;;;;;;;;;;;;;;;4994429;28;19985;-59
2022/05/09 08:24:53;;;;;;;;;;;;;;;;;;4993924;28;19914;-60
2022/05/09 08:27:19;;;;;;;;;;;;;;;;;;4993198;28;20564;-59
2022/05/09 08:29:45;;;;;;;;;;;;;;;;;;4992928;28;19949;-58
2022/05/09 08:32:10;;;;;;;;;;;;;;;;;;4992289;28;19967;-61
2022/05/09 08:34:36;;;;;;;;;;;;;;;;;;4993423;28;19924;-59
2022/05/09 08:37:01;;;;;;;;;;;;;;;;;;4990436;28;19922;-62
2022/05/09 08:39:27;;;;;;;;;;;;;;;;;;4993076;28;20374;-60
2022/05/09 08:41:53;;;;;;;;;;;;;;;;;;5001365;28;19922;-60
2022/05/09 08:44:19;;;;;;;;;;;;;;;;;;4992118;28;19921;-60
2022/05/09 08:46:44;;;;;;;;;;;;;;;;;;4994692;28;19924;-63
2022/05/09 08:49:09;;;;;;;;;;;;;;;;;;4991965;28;19957;-60
2022/05/09 08:51:35;;;;;;;;;;;;;;;;;;4993679;28;20016;-60
2022/05/09 08:54:00;;;;;;;;;;;;;;;;;;4995402;28;19922;-61
2022/05/09 08:56:25;;;;;;;;;;;;;;;;;;4993136;28;19929;-61
2022/05/09 08:58:51;;;;;;;;;;;;;;;;;;4985172;28;19969;-61
2022/05/09 09:01:16;;;;;;;;;;;;;;;;;;4992615;28;20374;-60
2022/05/09 09:03:43;;;;;;;;;;;;;;;;;;4994871;28;19921;-60
2022/05/09 09:06:08;;;;;;;;;;;;;;;;;;4996907;28;20400;-60
2022/05/09 09:08:37;;;;;;;;;;;;;;;;;;4999850;28;19918;-62
2022/05/09 09:11:02;;;;;;;;;;;;;;;;;;4982766;28;20003;-60
2022/05/09 09:13:28;;;;;;;;;;;;;;;;;;4967799;28;19925;-60
2022/05/09 09:15:55;;;;;;;;;;;;;;;;;;4985128;28;19917;-60
2022/05/09 09:18:21;;;;;;;;;;;;;;;;;;4981579;28;19928;-61
2022/05/09 09:20:46;;;;;;;;;;;;;;;;;;4990598;28;19929;-61
2022/05/09 09:23:14;;;;;;;;;;;;;;;;;;4997005;28;20043;-60
2022/05/09 09:25:40;;;;;;;;;;;;;;;;;;4998032;28;19924;-61
2022/05/09 09:28:05;;;;;;;;;;;;;;;;;;4991063;28;20006;-61
2022/05/09 09:30:30;;;;;;;;;;;;;;;;;;4993612;28;20252;-60
2022/05/09 09:32:56;;;;;;;;;;;;;;;;;;4991706;28;20243;-61
2022/05/09 09:35:21;;;;;;;;;;;;;;;;;;4996587;28;20699;-60
2022/05/09 09:37:47;;;;;;;;;;;;;;;;;;4994544;28;19918;-62
2022/05/09 09:40:12;;;;;;;;;;;;;;;;;;4996200;28;19918;-60
2022/05/09 09:42:37;;;;;;;;;;;;;;;;;;4999214;28;20398;-61
2022/05/09 09:45:04;;;;;;;;;;;;;;;;;;4994462;28;19929;-62
2022/05/09 09:47:29;;;;;;;;;;;;;;;;;;4994478;28;19917;-63
2022/05/09 09:49:54;;;;;;;;;;;;;;;;;;4996154;28;20496;-62
2022/05/09 09:52:19;;;;;;;;;;;;;;;;;;4994032;28;19964;-60
2022/05/09 09:54:45;;;;;;;;;;;;;;;;;;4994016;28;19917;-60
2022/05/09 09:57:10;;;;;;;;;;;;;;;;;;4999324;28;20382;-61
2022/05/09 09:59:35;;;;;;;;;;;;;;;;;;5000221;28;19921;-61
2022/05/09 10:02:00;;;;;;;;;;;;;;;;;;4991015;28;19972;-61
2022/05/09 10:04:26;;;;;;;;;;;;;;;;;;4993312;28;19913;-62
2022/05/09 10:06:51;;;;;;;;;;;;;;;;;;4983022;28;20615;-60
2022/05/09 10:09:16;;;;;;;;;;;;;;;;;;4981669;28;19918;-62
2022/05/09 10:11:41;;;;;;;;;;;;;;;;;;4984314;28;19917;-61
2022/05/09 10:14:07;;;;;;;;;;;;;;;;;;4982514;28;19917;-60
2022/05/09 10:16:33;;;;;;;;;;;;;;;;;;5007943;28;19925;-61
2022/05/09 10:18:58;;;;;;;;;;;;;;;;;;4993827;28;19976;-61
2022/05/09 10:26:52;;;;;;;;;;;;;;;;;;4989577;28;19921;-62
2022/05/09 10:29:17;;;;;;;;;;;;;;;;;;4990774;28;20019;-61
2022/05/09 10:31:42;;;;;;;;;;;;;;;;;;5003083;28;20184;-61
2022/05/09 10:34:07;;;;;;;;;;;;;;;;;;5002382;28;20453;-61
2022/05/09 10:36:33;;;;;;;;;;;;;;;;;;4988924;28;19924;-60
2022/05/09 10:38:58;;;;;;;;;;;;;;;;;;5001665;28;19918;-61
2022/05/09 10:41:23;;;;;;;;;;;;;;;;;;4989490;28;19929;-60
2022/05/09 10:43:50;;;;;;;;;;;;;;;;;;4986508;28;19918;-61
2022/05/09 10:46:15;;;;;;;;;;;;;;;;;;4988357;28;19921;-60
2022/05/09 10:48:41;;;;;;;;;;;;;;;;;;4986447;28;19925;-61
2022/05/09 10:51:06;;;;;;;;;;;;;;;;;;4991031;28;19921;-61
2022/05/09 10:53:31;;;;;;;;;;;;;;;;;;4987318;28;20469;-61
2022/05/09 10:55:57;;;;;;;;;;;;;;;;;;4991055;28;19959;-61
2022/05/09 10:58:22;;;;;;;;;;;;;;;;;;4988316;28;20552;-61
2022/05/09 11:00:47;;;;;;;;;;;;;;;;;;4992105;28;20400;-61
2022/05/09 11:03:12;;;;;;;;;;;;;;;;;;4994622;28;19922;-62
2022/05/09 11:05:37;;;;;;;;;;;;;;;;;;4997789;28;19988;-61
2022/05/09 11:08:03;;;;;;;;;;;;;;;;;;5001892;28;19914;-62
2022/05/09 11:10:28;;;;;;;;;;;;;;;;;;4992395;28;20000;-63
2022/05/09 11:12:53;;;;;;;;;;;;;;;;;;4991783;28;20003;-62
2022/05/09 11:15:18;;;;;;;;;;;;;;;;;;4999910;28;19979;-63
2022/05/09 11:17:44;;;;;;;;;;;;;;;;;;4992717;28;20674;-61
2022/05/09 11:20:09;;;;;;;;;;;;;;;;;;4991308;28;19965;-62
2022/05/09 11:22:35;;;;;;;;;;;;;;;;;;4991311;28;20391;-62
2022/05/09 11:25:01;;;;;;;;;;;;;;;;;;4991629;28;19917;-62
2022/05/09 11:27:26;;;;;;;;;;;;;;;;;;4991978;28;19914;-62
2022/05/09 11:29:51;;;;;;;;;;;;;;;;;;4992793;28;19922;-62
2022/05/09 11:32:17;;;;;;;;;;;;;;;;;;4992600;28;19914;-61
2022/05/09 11:34:42;;;;;;;;;;;;;;;;;;4993404;28;20334;-62
2022/05/09 11:37:07;;;;;;;;;;;;;;;;;;5005802;28;19965;-62
2022/05/09 11:39:32;;;;;;;;;;;;;;;;;;4994143;28;19918;-61
2022/05/09 11:41:57;;;;;;;;;;;;;;;;;;4991850;28;19928;-63
2022/05/09 11:44:23;;;;;;;;;;;;;;;;;;4991750;28;20048;-63
2022/05/09 11:46:49;;;;;;;;;;;;;;;;;;4995262;28;20556;-63
2022/05/09 11:49:14;;;;;;;;;;;;;;;;;;5006947;28;20449;-64
2022/05/09 11:51:39;;;;;;;;;;;;;;;;;;4994492;28;20401;-63
2022/05/09 11:54:05;;;;;;;;;;;;;;;;;;4992651;28;19964;-63
2022/05/09 11:56:30;;;;;;;;;;;;;;;;;;4993043;28;19925;-61
2022/05/09 11:58:55;;;;;;;;;;;;;;;;;;4994332;28;19922;-62
2022/05/09 12:01:20;;;;;;;;;;;;;;;;;;4992713;28;19926;-64
2022/05/09 12:03:45;;;;;;;;;;;;;;;;;;4991961;28;19928;-63
2022/05/09 12:06:14;;;;;;;;;;;;;;;;;;4994094;28;20008;-63
2022/05/09 12:08:43;;;;;;;;;;;;;;;;;;5001612;28;20628;-62
2022/05/09 12:11:08;;;;;;;;;;;;;;;;;;4991348;28;20417;-62
2022/05/09 12:13:33;;;;;;;;;;;;;;;;;;4992025;28;19917;-62
2022/05/09 12:15:58;;;;;;;;;;;;;;;;;;5006849;28;19925;-62
2022/05/09 12:18:23;;;;;;;;;;;;;;;;;;4991521;28;20016;-62
2022/05/09 12:20:49;;;;;;;;;;;;;;;;;;4991279;28;19921;-62
2022/05/09 12:23:14;;;;;;;;;;;;;;;;;;4993513;28;19922;-62
2022/05/09 12:25:45;;;;;;;;;;;;;;;;;;4989952;28;19917;-62
2022/05/09 12:28:10;;;;;;;;;;;;;;;;;;4992531;28;19972;-61
2022/05/09 12:30:35;;;;;;;;;;;;;;;;;;5004043;28;20682;-61
2022/05/09 12:33:01;;;;;;;;;;;;;;;;;;4990393;28;20394;-60
2022/05/09 12:35:26;;;;;;;;;;;;;;;;;;4994394;28;19971;-62
2022/05/09 12:37:51;;;;;;;;;;;;;;;;;;4993430;28;19928;-62
2022/05/09 12:40:17;;;;;;;;;;;;;;;;;;4997317;28;19927;-60
2022/05/09 12:42:42;;;;;;;;;;;;;;;;;;5003520;28;19988;-61
2022/05/09 12:45:08;;;;;;;;;;;;;;;;;;5007370;28;19924;-63
2022/05/09 12:47:34;;;;;;;;;;;;;;;;;;4998225;28;19913;-62
2022/05/09 12:49:59;;;;;;;;;;;;;;;;;;5002159;28;20020;-60
2022/05/09 12:52:24;;;;;;;;;;;;;;;;;;4998806;28;20016;-61
2022/05/09 12:57:35;;;;;;;;;;;;;;;;;;4994722;28;19940;-63
2022/05/09 13:00:00;;;;;;;;;;;;;;;;;;4996869;28;20272;-62
2022/05/09 13:02:25;;;;;;;;;;;;;;;;;;4995979;28;20378;-61
2022/05/09 13:04:50;;;;;;;;;;;;;;;;;;4999855;28;19945;-62
2022/05/09 13:07:15;;;;;;;;;;;;;;;;;;4997464;28;19924;-62
2022/05/09 13:09:44;;;;;;;;;;;;;;;;;;5012512;28;20611;-62
2022/05/09 13:12:13;;;;;;;;;;;;;;;;;;5012387;28;19980;-62
2022/05/09 13:14:39;;;;;;;;;;;;;;;;;;4998738;28;20389;-61
2022/05/09 13:17:04;;;;;;;;;;;;;;;;;;4996487;28;20567;-61
2022/05/09 13:19:30;;;;;;;;;;;;;;;;;;4996050;28;20619;-63
2022/05/09 13:21:59;;;;;;;;;;;;;;;;;;4998792;28;19929;-62
2022/05/09 13:24:24;;;;;;;;;;;;;;;;;;4999607;28;19976;-61
2022/05/09 13:26:50;;;;;;;;;;;;;;;;;;4997725;28;19918;-60
2022/05/09 13:29:15;;;;;;;;;;;;;;;;;;4998437;28;20271;-61
2022/05/09 13:31:40;;;;;;;;;;;;;;;;;;4992262;28;20339;-61
2022/05/09 13:34:05;;;;;;;;;;;;;;;;;;4991921;28;20849;-62
2022/05/09 13:36:31;;;;;;;;;;;;;;;;;;5004567;28;20027;-62
2022/05/09 13:38:57;;;;;;;;;;;;;;;;;;4993975;28;19953;-63
2022/05/09 13:41:24;;;;;;;;;;;;;;;;;;4994446;28;20053;-65
2022/05/09 13:43:49;;;;;;;;;;;;;;;;;;4994901;28;19936;-62
2022/05/09 13:46:14;;;;;;;;;;;;;;;;;;4995634;28;20543;-62
2022/05/09 13:48:40;;;;;;;;;;;;;;;;;;4997719;28;19921;-62
2022/05/09 13:51:05;;;;;;;;;;;;;;;;;;4995874;28;19918;-62
2022/05/09 13:53:30;;;;;;;;;;;;;;;;;;4996155;28;19968;-63
2022/05/09 13:55:56;;;;;;;;;;;;;;;;;;5010290;28;19987;-62
2022/05/09 13:58:21;;;;;;;;;;;;;;;;;;5013638;28;20021;-64
2022/05/09 14:00:47;;;;;;;;;;;;;;;;;;4996999;28;19921;-62
2022/05/09 14:03:12;;;;;;;;;;;;;;;;;;4996766;28;20013;-63
2022/05/09 14:05:37;;;;;;;;;;;;;;;;;;4995317;28;19917;-63
2022/05/09 14:08:03;;;;;;;;;;;;;;;;;;4996725;28;19924;-62
2022/05/09 14:10:28;;;;;;;;;;;;;;;;;;4993364;28;20241;-63
2022/05/09 14:12:53;;;;;;;;;;;;;;;;;;4996380;28;19917;-62
2022/05/09 14:15:21;;;;;;;;;;;;;;;;;;4985558;28;19921;-63
2022/05/09 14:17:46;;;;;;;;;;;;;;;;;;4993692;28;19918;-63
2022/05/09 14:20:12;;;;;;;;;;;;;;;;;;4995617;28;20007;-63
2022/05/09 14:22:38;;;;;;;;;;;;;;;;;;4995630;28;19922;-62
2022/05/09 14:30:31;;;;;;;;;;;;;;;;;;4993387;28;19919;-64
2022/05/09 14:32:56;;;;;;;;;;;;;;;;;;4994914;28;19925;-62
2022/05/09 14:35:21;;;;;;;;;;;;;;;;;;4994292;28;19922;-58
2022/05/09 14:37:47;;;;;;;;;;;;;;;;;;4996512;28;20401;-63
2022/05/09 14:40:15;;;;;;;;;;;;;;;;;;4992155;28;19928;-62
2022/05/09 14:42:41;;;;;;;;;;;;;;;;;;4993867;28;19929;-63
2022/05/09 14:45:07;;;;;;;;;;;;;;;;;;4997503;28;20263;-62
2022/05/09 14:47:32;;;;;;;;;;;;;;;;;;4995907;28;19968;-62
2022/05/09 14:49:57;;;;;;;;;;;;;;;;;;4996079;28;19918;-61
2022/05/09 14:52:23;;;;;;;;;;;;;;;;;;4994360;28;19964;-62
2022/05/09 14:54:48;;;;;;;;;;;;;;;;;;5000354;28;20650;-63
2022/05/09 14:57:25;;;;;;;;;;;;;;;;;;4995577;28;20620;-62
2022/05/09 14:59:50;;;;;;;;;;;;;;;;;;4992381;28;19921;-62
2022/05/09 15:02:16;;;;;;;;;;;;;;;;;;4990951;28;19921;-62
2022/05/09 15:04:41;;;;;;;;;;;;;;;;;;4991850;28;19964;-62
2022/05/09 15:07:06;;;;;;;;;;;;;;;;;;4991120;28;19918;-63
2022/05/09 15:09:32;;;;;;;;;;;;;;;;;;4996157;28;19988;-63
2022/05/09 15:11:58;;;;;;;;;;;;;;;;;;4997213;28;19917;-62
2022/05/09 15:14:23;;;;;;;;;;;;;;;;;;5009341;28;20302;-61
2022/05/09 15:16:48;;;;;;;;;;;;;;;;;;4994306;28;19917;-62
2022/05/09 15:19:13;;;;;;;;;;;;;;;;;;4995211;28;19924;-62
2022/05/09 15:21:39;;;;;;;;;;;;;;;;;;5008801;28;20036;-62
2022/05/09 15:24:04;;;;;;;;;;;;;;;;;;4991715;28;20003;-62
2022/05/09 15:26:29;;;;;;;;;;;;;;;;;;5003337;28;19918;-61
2022/05/09 15:28:54;;;;;;;;;;;;;;;;;;4990132;28;19926;-62
2022/05/09 15:31:20;;;;;;;;;;;;;;;;;;4984818;28;19922;-63
2022/05/09 15:33:46;;;;;;;;;;;;;;;;;;4989264;28;19921;-61
2022/05/09 15:36:11;;;;;;;;;;;;;;;;;;4992955;28;19917;-62
2022/05/09 15:38:37;;;;;;;;;;;;;;;;;;4986746;28;20678;-61
2022/05/09 15:41:06;;;;;;;;;;;;;;;;;;4989055;28;20877;-62
2022/05/09 15:43:31;;;;;;;;;;;;;;;;;;4985209;28;19925;-62
2022/05/09 15:45:57;;;;;;;;;;;;;;;;;;4987762;28;19968;-61
2022/05/09 15:48:25;;;;;;;;;;;;;;;;;;4987130;28;19961;-62
2022/05/09 15:50:50;;;;;;;;;;;;;;;;;;4986487;28;20003;-61
2022/05/09 15:53:19;;;;;;;;;;;;;;;;;;4986761;28;19922;-62
2022/05/09 15:55:44;;;;;;;;;;;;;;;;;;5001070;28;19913;-62
2022/05/09 15:58:12;;;;;;;;;;;;;;;;;;4988828;28;19924;-62
2022/05/09 16:00:37;;;;;;;;;;;;;;;;;;4988184;28;19926;-63
2022/05/09 16:03:02;;;;;;;;;;;;;;;;;;4987990;28;19925;-61
2022/05/09 16:11:22;;;;;;;;;;;;;;;;;;4990989;28;20015;-61
2022/05/09 16:13:31;;;;;;;;;;;;;;;;;;4986813;28;19921;-63
2022/05/09 16:15:56;;;;;;;;;;;;;;;;;;4986316;28;20052;-61
2022/05/09 16:18:21;;;;;;;;;;;;;;;;;;4984394;28;19921;-62
2022/05/09 16:20:46;;;;;;;;;;;;;;;;;;4988225;28;19922;-62
2022/05/09 16:23:12;;;;;;;;;;;;;;;;;;5000598;28;19926;-63
2022/05/09 16:25:38;;;;;;;;;;;;;;;;;;4987461;28;19967;-62
2022/05/09 16:28:03;;;;;;;;;;;;;;;;;;4984545;28;19921;-63
2022/05/09 16:30:30;;;;;;;;;;;;;;;;;;4988031;28;19977;-63
2022/05/09 16:32:55;;;;;;;;;;;;;;;;;;4984919;28;20031;-62
2022/05/09 16:35:21;;;;;;;;;;;;;;;;;;5001698;28;20002;-63
2022/05/09 16:37:46;;;;;;;;;;;;;;;;;;4986997;28;19999;-63
2022/05/09 16:40:13;;;;;;;;;;;;;;;;;;4968834;28;20056;-62
2022/05/09 16:42:40;;;;;;;;;;;;;;;;;;4986119;28;20432;-62
2022/05/09 16:45:05;;;;;;;;;;;;;;;;;;4986178;28;19983;-62
2022/05/09 16:47:31;;;;;;;;;;;;;;;;;;5000719;28;19968;-62
2022/05/09 16:49:56;;;;;;;;;;;;;;;;;;4984382;28;19914;-61
2022/05/09 16:52:21;;;;;;;;;;;;;;;;;;4986787;28;20397;-61
2022/05/09 16:54:49;;;;;;;;;;;;;;;;;;4992007;28;20685;-62
2022/05/09 16:57:14;;;;;;;;;;;;;;;;;;4989734;28;20013;-61
2022/05/09 16:59:43;;;;;;;;;;;;;;;;;;4993022;28;20333;-62